Time;durP1;ratioP1;P1;durP2;ratioP2;P2;SDS_P1;SDS_P2;PMS_P1;PMS_P2;Temp;Humidity;BMP_temperature;BMP_pressure;BME280_temperature;BME280_humidity;BME280_pressure;Samples;Min_cycle;Max_cycle;Signal;HPM_P1;HPM_P2
2023/07/20 03:01:36;;;;;;;;;;;13.50;99.90;;;;;;5461499;23;20325;-75
2023/07/20 03:04:02;;;;;;;;;;;13.40;99.90;;;;;;5012762;28;19961;-75
2023/07/20 03:06:27;;;;;;;;;;;13.40;99.90;;;;;;5014744;28;19917;-75
2023/07/20 03:08:53;;;;;;;;;;;13.30;99.90;;;;;;5017853;28;19921;-75
2023/07/20 03:11:20;;;;;;;;;;;13.30;99.90;;;;;;5016190;28;19921;-75
2023/07/20 03:13:46;;;;;;;;;;;13.30;99.90;;;;;;5018186;28;19917;-74
2023/07/20 03:16:15;;;;;;;;;;;13.20;99.90;;;;;;5016217;28;19949;-75
2023/07/20 03:18:41;;;;;;;;;;;13.20;99.90;;;;;;5017388;28;19918;-74
2023/07/20 03:21:07;;;;;;;;;;;13.20;99.90;;;;;;5016353;28;19924;-74
2023/07/20 03:23:33;;;;;;;;;;;13.10;99.90;;;;;;5016396;28;20392;-74
2023/07/20 03:25:58;;;;;;;;;;;13.10;99.90;;;;;;5016853;28;19981;-75
2023/07/20 03:28:24;;;;;;;;;;;13.10;99.90;;;;;;5017480;28;19917;-76
2023/07/20 03:30:54;;;;;;;;;;;13.10;99.90;;;;;;5015828;28;19996;-75
2023/07/20 03:33:21;;;;;;;;;;;13.10;99.90;;;;;;5015825;28;19917;-76
2023/07/20 03:35:47;;;;;;;;;;;13.00;99.90;;;;;;5015848;28;19921;-74
2023/07/20 03:38:12;;;;;;;;;;;13.00;99.90;;;;;;5015574;28;20008;-75
2023/07/20 03:40:38;;;;;;;;;;;13.00;99.90;;;;;;5015347;28;19924;-75
2023/07/20 03:43:03;;;;;;;;;;;12.90;99.90;;;;;;5015654;28;19928;-74
2023/07/20 03:45:29;;;;;;;;;;;12.90;99.90;;;;;;5017022;28;19917;-74
2023/07/20 03:47:55;;;;;;;;;;;12.90;99.90;;;;;;5016575;28;19917;-75
2023/07/20 03:50:20;;;;;;;;;;;12.90;99.90;;;;;;5015358;28;19917;-74
2023/07/20 03:52:46;;;;;;;;;;;12.80;99.90;;;;;;5015416;28;19960;-75
2023/07/20 03:55:12;;;;;;;;;;;12.90;99.90;;;;;;5015310;28;19979;-74
2023/07/20 03:57:37;;;;;;;;;;;12.90;99.90;;;;;;5015655;28;20269;-75
2023/07/20 04:00:06;;;;;;;;;;;12.80;99.90;;;;;;5015643;28;19917;-74
2023/07/20 04:02:32;;;;;;;;;;;12.80;99.90;;;;;;5016132;28;19924;-74
2023/07/20 04:04:57;;;;;;;;;;;12.80;99.90;;;;;;5015125;28;20300;-74
2023/07/20 04:07:23;;;;;;;;;;;12.80;99.90;;;;;;5015117;28;19928;-74
2023/07/20 04:09:48;;;;;;;;;;;12.80;99.90;;;;;;5015423;28;19917;-73
2023/07/20 04:12:14;;;;;;;;;;;12.80;99.90;;;;;;5015237;28;19917;-74
2023/07/20 04:14:39;;;;;;;;;;;12.80;99.90;;;;;;5015121;28;19936;-75
2023/07/20 04:17:05;;;;;;;;;;;12.90;99.90;;;;;;5014436;28;20008;-75
2023/07/20 04:19:31;;;;;;;;;;;12.80;99.90;;;;;;5014811;28;19944;-75
2023/07/20 04:21:56;;;;;;;;;;;12.80;99.90;;;;;;5016064;28;19921;-77
2023/07/20 04:24:22;;;;;;;;;;;12.80;99.90;;;;;;5016086;28;19967;-74
2023/07/20 04:26:47;;;;;;;;;;;12.80;99.90;;;;;;5015982;28;19923;-73
2023/07/20 04:29:13;;;;;;;;;;;12.90;99.90;;;;;;5015930;28;19960;-76
2023/07/20 04:31:38;;;;;;;;;;;12.80;99.90;;;;;;5015884;28;19972;-75
2023/07/20 04:34:04;;;;;;;;;;;12.80;99.90;;;;;;5014523;28;19960;-74
2023/07/20 04:36:29;;;;;;;;;;;12.90;99.90;;;;;;5016079;28;19917;-75
2023/07/20 04:38:55;;;;;;;;;;;12.90;99.90;;;;;;5014593;28;19926;-75
2023/07/20 04:41:20;;;;;;;;;;;12.90;99.90;;;;;;5014372;28;19917;-75
2023/07/20 04:43:46;;;;;;;;;;;12.90;99.90;;;;;;5014789;28;20272;-75
2023/07/20 04:46:12;;;;;;;;;;;12.90;99.90;;;;;;5014764;28;19917;-74
2023/07/20 04:48:38;;;;;;;;;;;12.90;99.90;;;;;;5015886;28;20368;-74
2023/07/20 04:51:03;;;;;;;;;;;12.90;99.90;;;;;;5014320;28;20396;-75
2023/07/20 04:53:30;;;;;;;;;;;12.90;99.90;;;;;;5014551;28;19925;-75
2023/07/20 04:55:56;;;;;;;;;;;12.90;99.90;;;;;;5014132;28;19921;-75
2023/07/20 04:58:22;;;;;;;;;;;12.90;99.90;;;;;;5014600;28;19924;-75
2023/07/20 05:00:48;;;;;;;;;;;13.00;99.90;;;;;;5015218;28;19917;-77
2023/07/20 05:03:13;;;;;;;;;;;13.00;99.90;;;;;;5014165;28;19928;-78
2023/07/20 05:05:39;;;;;;;;;;;12.90;99.90;;;;;;5014076;28;19917;-74
2023/07/20 05:08:05;;;;;;;;;;;13.00;99.90;;;;;;5013895;28;19948;-75
2023/07/20 05:10:30;;;;;;;;;;;12.90;99.90;;;;;;5015237;28;19979;-74
2023/07/20 05:12:56;;;;;;;;;;;12.90;99.90;;;;;;5013852;28;19924;-75
2023/07/20 05:15:21;;;;;;;;;;;12.90;99.90;;;;;;5013756;28;19921;-75
2023/07/20 05:17:48;;;;;;;;;;;13.00;99.90;;;;;;5013876;28;19917;-76
2023/07/20 05:20:14;;;;;;;;;;;13.00;99.90;;;;;;4997717;28;20280;-75
2023/07/20 05:22:39;;;;;;;;;;;13.00;99.90;;;;;;5015022;28;19924;-75
2023/07/20 05:25:09;;;;;;;;;;;13.00;99.90;;;;;;5014932;28;20211;-75
2023/07/20 05:27:35;;;;;;;;;;;13.00;99.90;;;;;;5013683;28;19924;-75
2023/07/20 05:30:01;;;;;;;;;;;13.10;99.90;;;;;;5013922;28;19943;-74
2023/07/20 05:32:27;;;;;;;;;;;13.10;99.90;;;;;;5015039;28;20388;-74
2023/07/20 05:34:54;;;;;;;;;;;13.20;99.90;;;;;;5014680;28;20014;-75
2023/07/20 05:37:19;;;;;;;;;;;13.20;99.90;;;;;;5013404;28;20012;-74
2023/07/20 05:39:45;;;;;;;;;;;13.30;99.90;;;;;;5014732;28;20012;-75
2023/07/20 05:42:10;;;;;;;;;;;13.30;99.90;;;;;;4997238;28;19917;-75
2023/07/20 05:44:36;;;;;;;;;;;13.40;99.90;;;;;;4996962;28;19917;-76
2023/07/20 05:47:02;;;;;;;;;;;13.50;99.90;;;;;;5014561;28;19917;-74
2023/07/20 05:49:28;;;;;;;;;;;13.50;99.90;;;;;;5013427;28;19917;-74
2023/07/20 05:51:54;;;;;;;;;;;13.50;99.90;;;;;;5014456;28;20438;-75
2023/07/20 05:54:20;;;;;;;;;;;13.60;99.90;;;;;;5014641;28;20008;-74
2023/07/20 05:56:46;;;;;;;;;;;13.60;99.90;;;;;;5013406;28;20440;-75
2023/07/20 05:59:11;;;;;;;;;;;13.70;99.90;;;;;;5013392;28;19917;-75
2023/07/20 06:01:37;;;;;;;;;;;13.80;99.90;;;;;;5012808;28;19979;-74
2023/07/20 06:04:03;;;;;;;;;;;13.90;99.90;;;;;;5013208;28;20258;-75
2023/07/20 06:06:29;;;;;;;;;;;13.90;99.90;;;;;;5012954;28;19918;-75
2023/07/20 06:08:54;;;;;;;;;;;14.00;99.90;;;;;;5013229;28;19918;-76
2023/07/20 06:11:20;;;;;;;;;;;14.00;99.90;;;;;;5014305;28;19969;-75
2023/07/20 06:13:45;;;;;;;;;;;14.10;99.90;;;;;;5012509;28;19918;-74
2023/07/20 06:16:11;;;;;;;;;;;14.10;99.90;;;;;;5014393;28;19922;-75
2023/07/20 06:18:36;;;;;;;;;;;14.20;99.90;;;;;;5012849;28;20004;-74
2023/07/20 06:21:02;;;;;;;;;;;14.30;99.90;;;;;;5013855;28;19917;-75
2023/07/20 06:23:28;;;;;;;;;;;14.40;99.90;;;;;;5014081;28;19918;-74
2023/07/20 06:25:53;;;;;;;;;;;14.40;99.90;;;;;;5012583;28;19921;-74
2023/07/20 06:28:19;;;;;;;;;;;14.50;99.90;;;;;;5012586;28;19952;-74
2023/07/20 06:30:45;;;;;;;;;;;14.50;99.90;;;;;;5012667;28;20308;-74
2023/07/20 06:33:10;;;;;;;;;;;14.60;99.90;;;;;;5014124;28;20380;-75
2023/07/20 06:35:35;;;;;;;;;;;14.70;99.90;;;;;;5006730;28;19929;-75
2023/07/20 06:38:03;;;;;;;;;;;14.80;99.90;;;;;;5002798;28;19918;-74
2023/07/20 06:40:29;;;;;;;;;;;14.90;99.90;;;;;;5004366;28;20264;-76
2023/07/20 06:42:55;;;;;;;;;;;14.90;99.90;;;;;;4993364;28;20346;-75
2023/07/20 06:45:20;;;;;;;;;;;15.00;99.90;;;;;;4999473;28;19918;-75
2023/07/20 06:47:46;;;;;;;;;;;15.00;99.90;;;;;;5000855;28;19965;-75
2023/07/20 06:50:12;;;;;;;;;;;15.10;99.90;;;;;;4999495;28;20310;-75
2023/07/20 06:52:37;;;;;;;;;;;15.10;99.90;;;;;;4999200;28;19917;-74
2023/07/20 06:55:03;;;;;;;;;;;15.20;99.90;;;;;;4999356;28;19922;-74
2023/07/20 06:57:29;;;;;;;;;;;15.30;99.90;;;;;;4999164;28;19924;-75
2023/07/20 06:59:54;;;;;;;;;;;15.40;99.90;;;;;;5000399;28;20013;-74
2023/07/20 07:02:20;;;;;;;;;;;15.50;99.90;;;;;;4998978;28;19918;-75
2023/07/20 07:04:46;;;;;;;;;;;15.60;99.90;;;;;;4999175;28;19944;-75
2023/07/20 07:07:15;;;;;;;;;;;15.70;99.90;;;;;;4999417;28;19918;-75
2023/07/20 07:09:41;;;;;;;;;;;15.80;99.90;;;;;;4999140;28;19921;-75
2023/07/20 07:12:07;;;;;;;;;;;15.80;99.90;;;;;;4999020;28;19964;-75
2023/07/20 07:14:32;;;;;;;;;;;15.80;99.90;;;;;;5000717;28;20009;-77
2023/07/20 07:16:58;;;;;;;;;;;15.80;99.90;;;;;;4999084;28;19952;-75
2023/07/20 07:19:23;;;;;;;;;;;15.80;99.90;;;;;;5000239;28;20292;-75
2023/07/20 07:21:49;;;;;;;;;;;15.80;99.90;;;;;;4999303;28;20281;-76
2023/07/20 07:24:14;;;;;;;;;;;15.90;99.90;;;;;;5000267;28;20341;-75
2023/07/20 07:26:40;;;;;;;;;;;15.90;99.90;;;;;;5000196;28;19917;-76
2023/07/20 07:29:06;;;;;;;;;;;16.00;99.90;;;;;;5000759;28;19918;-75
2023/07/20 07:31:33;;;;;;;;;;;16.10;99.90;;;;;;4998886;28;19918;-74
2023/07/20 07:33:59;;;;;;;;;;;16.20;99.90;;;;;;4998812;28;19921;-75
2023/07/20 07:36:25;;;;;;;;;;;16.30;99.90;;;;;;5000348;28;19925;-75
2023/07/20 07:38:50;;;;;;;;;;;16.30;99.90;;;;;;5000343;28;20017;-75
2023/07/20 07:41:16;;;;;;;;;;;16.30;99.90;;;;;;4999402;28;19917;-74
2023/07/20 07:43:41;;;;;;;;;;;16.30;99.90;;;;;;4998721;28;19993;-74
2023/07/20 07:46:07;;;;;;;;;;;16.30;99.90;;;;;;4998695;28;19918;-76
2023/07/20 07:48:32;;;;;;;;;;;16.20;99.90;;;;;;4999039;28;19917;-74
2023/07/20 07:50:58;;;;;;;;;;;16.20;99.90;;;;;;4999122;28;20369;-75
2023/07/20 07:53:25;;;;;;;;;;;16.20;99.90;;;;;;4995068;28;20320;-75
2023/07/20 07:55:51;;;;;;;;;;;16.20;99.90;;;;;;4995753;28;19960;-74
2023/07/20 07:58:17;;;;;;;;;;;16.30;99.90;;;;;;4997163;28;19918;-75
2023/07/20 08:00:44;;;;;;;;;;;16.30;99.90;;;;;;4995464;28;19918;-74
2023/07/20 08:03:10;;;;;;;;;;;16.40;99.90;;;;;;4995865;28;19967;-75
2023/07/20 08:05:35;;;;;;;;;;;16.50;99.90;;;;;;4979390;28;20316;-75
2023/07/20 08:08:04;;;;;;;;;;;16.60;99.90;;;;;;4995838;28;19960;-74
2023/07/20 08:10:30;;;;;;;;;;;16.60;99.90;;;;;;4997462;28;20412;-75
2023/07/20 08:12:56;;;;;;;;;;;16.70;99.90;;;;;;4995644;28;19921;-73
2023/07/20 08:15:21;;;;;;;;;;;16.80;99.90;;;;;;4997225;28;20351;-76
2023/07/20 08:17:48;;;;;;;;;;;16.90;99.90;;;;;;4995693;28;20285;-74
2023/07/20 08:20:14;;;;;;;;;;;17.00;99.90;;;;;;4995290;28;19921;-75
2023/07/20 08:22:39;;;;;;;;;;;17.00;99.90;;;;;;4997098;28;20020;-75
2023/07/20 08:25:06;;;;;;;;;;;17.00;99.90;;;;;;4995579;28;20016;-75
2023/07/20 08:27:31;;;;;;;;;;;17.00;99.90;;;;;;4979622;28;19924;-74
2023/07/20 08:29:57;;;;;;;;;;;17.10;99.90;;;;;;4995117;28;19922;-73
2023/07/20 08:32:23;;;;;;;;;;;17.20;99.90;;;;;;4996318;28;20339;-75
2023/07/20 08:34:48;;;;;;;;;;;17.30;99.90;;;;;;4995202;28;19921;-76
2023/07/20 08:37:14;;;;;;;;;;;17.40;99.90;;;;;;4995282;28;20357;-74
2023/07/20 08:39:39;;;;;;;;;;;17.40;99.90;;;;;;4979367;28;19918;-76
2023/07/20 08:42:06;;;;;;;;;;;17.40;99.90;;;;;;4995272;28;19917;-75
2023/07/20 08:44:32;;;;;;;;;;;17.40;99.90;;;;;;4995243;28;19921;-75
2023/07/20 08:46:58;;;;;;;;;;;17.50;99.90;;;;;;4994847;28;19917;-74
2023/07/20 08:49:24;;;;;;;;;;;17.60;99.90;;;;;;4995998;28;19944;-75
2023/07/20 08:51:51;;;;;;;;;;;17.70;99.90;;;;;;4996074;28;20445;-74
2023/07/20 08:54:16;;;;;;;;;;;17.90;99.90;;;;;;4994922;28;19918;-74
2023/07/20 08:56:42;;;;;;;;;;;17.90;99.90;;;;;;4995909;28;20234;-74
2023/07/20 08:59:08;;;;;;;;;;;17.70;99.90;;;;;;4995943;28;20472;-76
2023/07/20 09:01:35;;;;;;;;;;;17.80;99.90;;;;;;4995750;28;20322;-75
2023/07/20 09:04:00;;;;;;;;;;;17.90;99.90;;;;;;4994177;28;19917;-75
2023/07/20 09:06:26;;;;;;;;;;;18.10;99.90;;;;;;4996012;28;19925;-74
2023/07/20 09:08:52;;;;;;;;;;;18.10;99.90;;;;;;4994714;28;19976;-74
2023/07/20 09:11:17;;;;;;;;;;;18.10;99.90;;;;;;4994582;28;19918;-74
2023/07/20 09:13:47;;;;;;;;;;;18.10;99.90;;;;;;4995860;28;19917;-74
2023/07/20 09:16:16;;;;;;;;;;;18.00;99.90;;;;;;4994267;28;19926;-75
2023/07/20 09:18:41;;;;;;;;;;;18.20;99.90;;;;;;4994204;28;19924;-73
2023/07/20 09:21:07;;;;;;;;;;;18.40;99.90;;;;;;4994033;28;19917;-74
2023/07/20 09:23:32;;;;;;;;;;;18.40;99.90;;;;;;4994218;28;19917;-76
2023/07/20 09:25:58;;;;;;;;;;;18.50;99.90;;;;;;4994189;28;19917;-74
2023/07/20 09:28:23;;;;;;;;;;;18.50;99.90;;;;;;4995326;28;20012;-74
2023/07/20 09:30:49;;;;;;;;;;;18.40;99.90;;;;;;4994500;28;19917;-75
2023/07/20 09:33:19;;;;;;;;;;;18.30;99.90;;;;;;4993868;28;19918;-74
2023/07/20 09:35:45;;;;;;;;;;;18.30;99.90;;;;;;4993810;28;19922;-75
2023/07/20 09:38:10;;;;;;;;;;;18.20;99.90;;;;;;4995310;28;19924;-74
2023/07/20 09:40:39;;;;;;;;;;;18.20;99.90;;;;;;4995396;28;20308;-76
2023/07/20 09:43:07;;;;;;;;;;;18.40;99.90;;;;;;4994904;28;19922;-75
2023/07/20 09:45:33;;;;;;;;;;;18.60;99.90;;;;;;4977822;28;19918;-74
2023/07/20 09:48:03;;;;;;;;;;;18.80;99.90;;;;;;4993643;28;19968;-74
2023/07/20 09:50:28;;;;;;;;;;;19.00;99.90;;;;;;4994761;28;19918;-74
2023/07/20 09:52:54;;;;;;;;;;;19.20;99.90;;;;;;4994727;28;19929;-74
2023/07/20 09:55:20;;;;;;;;;;;19.50;99.90;;;;;;4993368;28;19922;-75
2023/07/20 09:57:46;;;;;;;;;;;19.50;99.90;;;;;;4993660;28;19918;-74
2023/07/20 10:00:12;;;;;;;;;;;19.30;99.90;;;;;;4993364;28;19917;-75
2023/07/20 10:02:41;;;;;;;;;;;18.90;99.90;;;;;;4993463;28;20281;-75
2023/07/20 10:05:08;;;;;;;;;;;18.70;99.90;;;;;;4994374;28;20079;-76
2023/07/20 10:07:35;;;;;;;;;;;18.80;99.90;;;;;;4999627;28;20454;-74
2023/07/20 10:10:01;;;;;;;;;;;19.00;99.90;;;;;;5003747;28;19924;-74
2023/07/20 10:12:27;;;;;;;;;;;19.00;99.90;;;;;;4997714;28;19960;-75
2023/07/20 10:14:57;;;;;;;;;;;19.00;99.90;;;;;;4993729;28;19921;-76
2023/07/20 10:17:25;;;;;;;;;;;18.90;99.90;;;;;;4994204;28;19959;-74
2023/07/20 10:19:53;;;;;;;;;;;19.00;99.90;;;;;;4993245;28;20324;-75
2023/07/20 10:22:25;;;;;;;;;;;19.20;99.90;;;;;;4994192;28;19925;-73
2023/07/20 10:24:53;;;;;;;;;;;19.30;99.90;;;;;;4977019;28;20317;-76
2023/07/20 10:27:22;;;;;;;;;;;19.40;99.90;;;;;;4992991;28;19917;-74
2023/07/20 10:29:48;;;;;;;;;;;19.40;99.90;;;;;;4993175;28;20332;-77
2023/07/20 10:32:13;;;;;;;;;;;19.40;99.90;;;;;;5004658;28;19922;-77
2023/07/20 10:34:39;;;;;;;;;;;19.50;99.90;;;;;;5013592;28;19921;-75
2023/07/20 10:37:05;;;;;;;;;;;19.70;99.90;;;;;;5012375;28;20292;-75
2023/07/20 10:39:31;;;;;;;;;;;20.00;99.90;;;;;;5013714;28;19966;-75
2023/07/20 10:42:06;;;;;;;;;;;20.10;99.90;;;;;;5013597;28;19917;-74
2023/07/20 10:44:32;;;;;;;;;;;20.10;99.90;;;;;;5012384;28;19924;-74
2023/07/20 10:47:02;;;;;;;;;;;20.00;99.90;;;;;;5012305;28;19918;-75
2023/07/20 10:49:28;;;;;;;;;;;19.90;99.90;;;;;;5013969;28;19917;-76
2023/07/20 10:51:59;;;;;;;;;;;20.10;99.90;;;;;;5012065;28;20446;-75
2023/07/20 10:54:27;;;;;;;;;;;20.10;99.90;;;;;;5013653;28;19925;-74
2023/07/20 10:56:55;;;;;;;;;;;20.20;99.90;;;;;;5012708;28;20392;-75
2023/07/20 10:59:36;;;;;;;;;;;20.20;99.90;;;;;;5013608;28;19956;-76
2023/07/20 11:02:06;;;;;;;;;;;20.10;99.90;;;;;;5011826;28;20048;-75
2023/07/20 11:04:38;;;;;;;;;;;20.10;99.90;;;;;;5012350;28;20297;-75
2023/07/20 11:07:04;;;;;;;;;;;20.00;99.90;;;;;;5013535;28;19921;-74
2023/07/20 11:09:33;;;;;;;;;;;19.70;99.90;;;;;;5011973;28;20365;-76
2023/07/20 11:12:09;;;;;;;;;;;19.60;99.90;;;;;;5013517;28;19925;-75
2023/07/20 11:14:39;;;;;;;;;;;19.30;99.90;;;;;;5012122;28;20036;-75
2023/07/20 11:17:13;;;;;;;;;;;19.30;99.90;;;;;;5011922;28;19917;-74
2023/07/20 11:19:39;;;;;;;;;;;19.30;99.90;;;;;;5011776;28;19924;-76
2023/07/20 11:22:07;;;;;;;;;;;19.40;99.90;;;;;;5011694;28;20293;-75
2023/07/20 11:24:32;;;;;;;;;;;19.50;99.90;;;;;;5011821;28;20024;-75
2023/07/20 11:26:58;;;;;;;;;;;19.60;99.90;;;;;;5013228;28;19956;-74
2023/07/20 11:29:25;;;;;;;;;;;19.70;99.90;;;;;;5015758;28;20089;-75
2023/07/20 11:31:51;;;;;;;;;;;19.80;99.90;;;;;;5015661;28;19917;-73
2023/07/20 11:34:17;;;;;;;;;;;19.90;99.90;;;;;;5015593;28;20288;-75
2023/07/20 11:36:46;;;;;;;;;;;20.00;99.90;;;;;;5016988;28;19917;-74
2023/07/20 11:39:13;;;;;;;;;;;20.00;99.90;;;;;;5015289;28;19924;-75
2023/07/20 11:41:39;;;;;;;;;;;19.90;99.90;;;;;;5015207;28;19924;-77
2023/07/20 11:44:12;;;;;;;;;;;19.90;99.90;;;;;;5016608;28;20341;-75
2023/07/20 11:46:42;;;;;;;;;;;20.10;99.90;;;;;;5015555;28;19924;-74
2023/07/20 11:49:08;;;;;;;;;;;20.20;99.90;;;;;;5015478;28;19960;-75
2023/07/20 11:51:34;;;;;;;;;;;20.20;99.90;;;;;;5015124;28;20413;-76
2023/07/20 11:54:01;;;;;;;;;;;20.30;99.90;;;;;;5015393;28;19939;-74
2023/07/20 11:56:26;;;;;;;;;;;20.40;99.90;;;;;;4998681;28;19921;-75
2023/07/20 11:58:56;;;;;;;;;;;20.40;99.90;;;;;;5014940;28;19924;-75
2023/07/20 12:01:23;;;;;;;;;;;20.50;99.90;;;;;;5016050;28;20316;-75
2023/07/20 12:03:49;;;;;;;;;;;20.60;99.90;;;;;;5016397;28;20000;-75
2023/07/20 12:06:15;;;;;;;;;;;20.60;99.90;;;;;;4998775;28;20322;-74
2023/07/20 12:08:44;;;;;;;;;;;20.70;99.90;;;;;;5015527;28;19917;-72
2023/07/20 12:11:10;;;;;;;;;;;20.80;99.90;;;;;;5015438;28;19917;-75
2023/07/20 12:13:36;;;;;;;;;;;20.70;99.90;;;;;;5014851;28;20012;-74
2023/07/20 12:16:13;;;;;;;;;;;20.70;99.90;;;;;;5017179;28;19971;-75
2023/07/20 12:18:38;;;;;;;;;;;20.70;99.90;;;;;;5015964;28;20001;-75
2023/07/20 12:21:05;;;;;;;;;;;20.70;99.90;;;;;;5015281;28;19968;-76
2023/07/20 12:23:38;;;;;;;;;;;20.70;99.90;;;;;;5014933;28;19945;-76
2023/07/20 12:26:06;;;;;;;;;;;20.80;99.90;;;;;;5014904;28;20135;-74
2023/07/20 12:28:31;;;;;;;;;;;20.70;99.90;;;;;;5015786;28;19922;-76
2023/07/20 12:30:57;;;;;;;;;;;20.60;99.90;;;;;;5014380;28;19963;-74
2023/07/20 12:33:23;;;;;;;;;;;20.40;99.90;;;;;;5014310;28;19917;-75
2023/07/20 12:35:49;;;;;;;;;;;20.30;99.90;;;;;;5014211;28;19928;-75
2023/07/20 12:38:15;;;;;;;;;;;20.30;99.90;;;;;;5013630;28;20000;-75
2023/07/20 12:40:41;;;;;;;;;;;20.20;99.90;;;;;;5014055;28;20391;-76
2023/07/20 12:43:07;;;;;;;;;;;20.00;99.90;;;;;;5015460;28;19917;-77
2023/07/20 12:45:33;;;;;;;;;;;19.70;99.90;;;;;;5014337;28;19917;-75
2023/07/20 12:47:59;;;;;;;;;;;19.60;99.90;;;;;;5015260;28;20346;-75
2023/07/20 12:50:24;;;;;;;;;;;19.70;99.90;;;;;;5015205;28;19921;-74
2023/07/20 12:52:50;;;;;;;;;;;20.00;99.90;;;;;;5015590;28;19971;-77
2023/07/20 12:55:15;;;;;;;;;;;20.10;99.90;;;;;;5013847;28;20345;-73
2023/07/20 12:57:41;;;;;;;;;;;20.30;99.90;;;;;;5015121;28;19991;-74
2023/07/20 13:00:11;;;;;;;;;;;20.60;99.90;;;;;;5015315;28;19918;-76
2023/07/20 13:02:38;;;;;;;;;;;20.80;99.90;;;;;;5013589;28;19924;-74
2023/07/20 13:05:04;;;;;;;;;;;21.10;99.90;;;;;;5015245;28;19960;-74
2023/07/20 13:07:31;;;;;;;;;;;21.10;99.90;;;;;;5013843;28;20346;-77
2023/07/20 13:09:59;;;;;;;;;;;21.20;99.90;;;;;;5014084;28;19917;-75
2023/07/20 13:12:24;;;;;;;;;;;21.20;99.90;;;;;;5015209;28;19921;-75
2023/07/20 13:14:50;;;;;;;;;;;21.30;99.90;;;;;;5014086;28;20281;-76
2023/07/20 13:17:15;;;;;;;;;;;21.50;99.90;;;;;;5013455;28;19918;-76
2023/07/20 13:19:41;;;;;;;;;;;21.70;99.90;;;;;;5013404;28;19925;-75
2023/07/20 13:22:06;;;;;;;;;;;21.90;99.90;;;;;;5013356;28;19917;-75
2023/07/20 13:24:32;;;;;;;;;;;21.80;97.80;;;;;;5013277;28;19917;-75
2023/07/20 13:26:57;;;;;;;;;;;21.60;99.30;;;;;;4996998;28;19918;-74
2023/07/20 13:29:23;;;;;;;;;;;21.80;99.90;;;;;;5015058;28;19967;-75
2023/07/20 13:31:49;;;;;;;;;;;21.90;99.90;;;;;;5013127;28;19917;-76
2023/07/20 13:34:15;;;;;;;;;;;21.70;99.60;;;;;;5013032;28;19917;-76
2023/07/20 13:36:40;;;;;;;;;;;21.50;99.90;;;;;;5013219;28;19917;-76
2023/07/20 13:39:06;;;;;;;;;;;21.50;99.90;;;;;;5013209;28;19917;-75
2023/07/20 13:41:32;;;;;;;;;;;21.30;99.60;;;;;;5014797;28;19918;-75
2023/07/20 13:43:57;;;;;;;;;;;21.40;99.90;;;;;;5014515;28;19917;-75
2023/07/20 13:46:23;;;;;;;;;;;21.50;99.10;;;;;;5012898;28;20328;-76
2023/07/20 13:48:48;;;;;;;;;;;21.60;97.40;;;;;;5012914;28;19968;-73
2023/07/20 13:51:14;;;;;;;;;;;21.50;98.50;;;;;;5013121;28;19965;-72
2023/07/20 13:53:40;;;;;;;;;;;21.50;99.10;;;;;;5014095;28;19968;-76
2023/07/20 13:56:06;;;;;;;;;;;21.50;98.90;;;;;;5014325;28;19995;-75
2023/07/20 13:58:32;;;;;;;;;;;21.40;95.60;;;;;;5012796;28;20262;-74
2023/07/20 14:00:58;;;;;;;;;;;21.40;97.20;;;;;;5014450;28;20411;-76
2023/07/20 14:03:23;;;;;;;;;;;21.30;96.30;;;;;;5013064;28;19917;-75
2023/07/20 14:05:49;;;;;;;;;;;21.40;97.30;;;;;;5013042;28;20376;-76
2023/07/20 14:08:15;;;;;;;;;;;21.60;97.20;;;;;;4996336;28;19961;-76
2023/07/20 14:10:41;;;;;;;;;;;21.70;97.20;;;;;;5013053;28;19922;-76
2023/07/20 14:13:07;;;;;;;;;;;21.60;96.70;;;;;;5014202;28;20382;-76
2023/07/20 14:15:34;;;;;;;;;;;21.70;97.20;;;;;;5013852;28;20004;-76
2023/07/20 14:18:00;;;;;;;;;;;21.80;96.80;;;;;;5013802;28;19939;-75
2023/07/20 14:20:25;;;;;;;;;;;21.80;96.10;;;;;;5013725;28;20435;-76
2023/07/20 14:22:51;;;;;;;;;;;21.90;97.00;;;;;;5012460;28;20004;-75
2023/07/20 14:25:16;;;;;;;;;;;21.90;95.90;;;;;;5013763;28;19921;-75
2023/07/20 14:27:42;;;;;;;;;;;22.00;97.00;;;;;;5013385;28;20318;-76
2023/07/20 14:30:08;;;;;;;;;;;22.10;97.60;;;;;;5012483;28;19918;-77
2023/07/20 14:32:34;;;;;;;;;;;22.10;97.20;;;;;;5012459;28;19928;-76
2023/07/20 14:35:00;;;;;;;;;;;22.00;97.90;;;;;;5012321;28;20292;-76
2023/07/20 14:37:25;;;;;;;;;;;22.00;97.20;;;;;;5013984;28;20277;-77
2023/07/20 14:39:51;;;;;;;;;;;22.20;98.80;;;;;;5013852;28;20004;-76
2023/07/20 14:42:17;;;;;;;;;;;22.10;98.20;;;;;;5012246;28;19921;-75
2023/07/20 14:44:43;;;;;;;;;;;21.90;98.30;;;;;;5012334;28;20328;-76
2023/07/20 14:47:08;;;;;;;;;;;21.90;98.20;;;;;;5013619;28;19918;-77
2023/07/20 14:49:34;;;;;;;;;;;21.70;98.10;;;;;;5012224;28;19981;-77
2023/07/20 14:51:59;;;;;;;;;;;21.50;98.20;;;;;;5013582;28;19964;-76
2023/07/20 14:54:25;;;;;;;;;;;21.60;99.50;;;;;;5012318;28;19917;-78
2023/07/20 14:56:54;;;;;;;;;;;21.50;98.20;;;;;;5012487;28;19917;-77
2023/07/20 14:59:20;;;;;;;;;;;21.50;97.60;;;;;;5012534;28;19940;-77
2023/07/20 15:01:45;;;;;;;;;;;21.30;98.10;;;;;;5003789;28;20346;-73
2023/07/20 15:04:12;;;;;;;;;;;21.50;98.60;;;;;;4996887;28;19971;-75
2023/07/20 15:06:37;;;;;;;;;;;21.40;98.60;;;;;;4996552;28;19918;-75
2023/07/20 15:09:03;;;;;;;;;;;21.20;98.10;;;;;;4997950;28;19940;-74
2023/07/20 15:11:29;;;;;;;;;;;21.10;98.30;;;;;;4996327;28;19918;-75
2023/07/20 15:13:56;;;;;;;;;;;20.90;99.20;;;;;;4996756;28;19925;-76
2023/07/20 15:16:22;;;;;;;;;;;20.80;99.90;;;;;;4996291;28;20301;-75
2023/07/20 15:18:47;;;;;;;;;;;20.60;99.80;;;;;;4980073;28;19918;-76
2023/07/20 15:21:13;;;;;;;;;;;20.50;99.90;;;;;;4996184;28;19971;-75
2023/07/20 15:23:38;;;;;;;;;;;20.50;99.90;;;;;;4997737;28;20029;-75
2023/07/20 15:26:04;;;;;;;;;;;20.30;99.90;;;;;;4996106;28;20358;-75
2023/07/20 15:28:29;;;;;;;;;;;20.30;99.90;;;;;;4996109;28;20298;-76
2023/07/20 15:31:02;;;;;;;;;;;20.20;99.90;;;;;;4995977;28;19918;-75
2023/07/20 15:33:28;;;;;;;;;;;20.20;99.90;;;;;;4995932;28;19918;-74
2023/07/20 15:35:54;;;;;;;;;;;20.20;99.90;;;;;;4996563;28;19933;-75
2023/07/20 15:38:19;;;;;;;;;;;20.30;99.90;;;;;;4995918;28;20350;-76
2023/07/20 15:40:46;;;;;;;;;;;20.40;99.90;;;;;;4979499;28;19918;-75
2023/07/20 15:43:12;;;;;;;;;;;20.60;99.90;;;;;;4995747;28;19917;-75
2023/07/20 15:45:37;;;;;;;;;;;20.90;99.90;;;;;;4997474;28;19918;-76
2023/07/20 15:48:03;;;;;;;;;;;21.10;99.90;;;;;;4995660;28;19925;-75
2023/07/20 15:50:28;;;;;;;;;;;21.20;99.90;;;;;;4996208;28;19967;-75
2023/07/20 15:52:54;;;;;;;;;;;21.40;99.90;;;;;;4996957;28;19921;-75
2023/07/20 15:55:19;;;;;;;;;;;21.50;99.90;;;;;;4995642;28;19929;-76
2023/07/20 15:57:45;;;;;;;;;;;21.40;99.90;;;;;;4996144;28;19918;-75
2023/07/20 16:00:11;;;;;;;;;;;21.30;99.90;;;;;;4997027;28;19918;-76
2023/07/20 16:02:37;;;;;;;;;;;21.40;99.90;;;;;;4995335;28;19968;-75
2023/07/20 16:05:02;;;;;;;;;;;21.50;99.90;;;;;;4995526;28;20311;-74
2023/07/20 16:07:29;;;;;;;;;;;21.60;99.90;;;;;;4996680;28;20292;-76
2023/07/20 16:09:58;;;;;;;;;;;21.80;99.60;;;;;;4995418;28;19921;-75
2023/07/20 16:12:26;;;;;;;;;;;21.80;99.80;;;;;;4996270;28;19917;-75
2023/07/20 16:14:51;;;;;;;;;;;21.70;99.40;;;;;;4995728;28;19929;-77
2023/07/20 16:17:17;;;;;;;;;;;21.80;98.90;;;;;;4996048;28;19917;-76
2023/07/20 16:19:42;;;;;;;;;;;21.90;99.90;;;;;;4995217;28;19918;-76
2023/07/20 16:22:11;;;;;;;;;;;21.90;99.90;;;;;;4995096;28;19918;-75
2023/07/20 16:24:37;;;;;;;;;;;22.00;99.90;;;;;;4995160;28;20389;-77
2023/07/20 16:27:04;;;;;;;;;;;22.10;99.90;;;;;;4995208;28;19918;-76
2023/07/20 16:29:30;;;;;;;;;;;22.10;99.90;;;;;;4995080;28;19924;-76
2023/07/20 16:31:55;;;;;;;;;;;22.20;99.90;;;;;;4995262;28;19969;-75
2023/07/20 16:34:21;;;;;;;;;;;22.10;99.90;;;;;;4996755;28;19973;-76
2023/07/20 16:36:46;;;;;;;;;;;22.10;99.20;;;;;;4995303;28;19924;-75
2023/07/20 16:39:12;;;;;;;;;;;22.10;99.90;;;;;;4996342;28;19918;-76
2023/07/20 16:41:38;;;;;;;;;;;21.80;99.90;;;;;;4994739;28;20329;-76
2023/07/20 16:44:03;;;;;;;;;;;21.60;99.90;;;;;;4994647;28;19917;-76
2023/07/20 16:46:29;;;;;;;;;;;21.50;99.90;;;;;;4994782;28;20012;-74
2023/07/20 16:48:54;;;;;;;;;;;21.60;99.90;;;;;;4995005;28;19940;-75
2023/07/20 16:51:20;;;;;;;;;;;21.60;99.90;;;;;;4978968;28;20358;-74
2023/07/20 16:53:45;;;;;;;;;;;21.70;99.90;;;;;;4994577;28;20432;-76
2023/07/20 16:56:11;;;;;;;;;;;21.80;99.90;;;;;;4994261;28;19921;-74
2023/07/20 16:58:37;;;;;;;;;;;21.70;99.90;;;;;;4979164;28;19924;-75
2023/07/20 17:01:06;;;;;;;;;;;21.70;99.90;;;;;;4994559;28;19918;-76
2023/07/20 17:03:32;;;;;;;;;;;21.70;99.90;;;;;;4996505;28;19997;-74
2023/07/20 17:05:58;;;;;;;;;;;21.60;99.90;;;;;;5015480;28;20012;-74
2023/07/20 17:08:23;;;;;;;;;;;21.40;99.90;;;;;;5014026;28;19972;-77
2023/07/20 17:10:49;;;;;;;;;;;21.30;99.90;;;;;;5013767;28;19917;-76